Latest Weather Observations for Stenhouse Bay

IDS60801

Issued at 11:35 am CST Wednesday 3 September 2014 (issued every 30 minutes, with the page automatically refreshed every 10 minutes)

About weather observations | Map of weather stations | Latest weather observations for SA | Other Formats
Station Details ID: 022049 Name: STENHOUSE BAY Lat: -35.28 Lon: 136.94 Height: 42.0 m
Data from the previous 72 hours. | See also: Recent months at Stenhouse Bay
Date/Time
CST
Temp
°C
App
Temp
°C
Dew
Point
Rel
Hum
%
Delta-T
°C
Wind Press
QNH
hPa
Press
MSL
hPa
Rain
since 9 am
mm
Dir
 
Spd
km/h
Gust
km/h
Spd
kts
Gust
kts
03/11:30am 12.3 7.2 7.8 74 2.2 NNE 24 32 13 17 1022.0 1022.0 0.0
03/11:00am 11.4 7.2 7.5 77 1.9 N 19 26 10 14 1022.8 1022.8 0.0
03/10:30am 11.3 7.1 7.6 78 1.8 N 19 24 10 13 1023.5 1023.5 0.0
03/10:00am 11.5 7.0 7.0 74 2.2 N 20 30 11 16 1023.6 1023.6 0.0
03/09:30am 12.1 7.4 7.8 75 2.1 NNE 22 30 12 16 1023.7 1023.7 0.0
03/09:00am 11.3 7.4 8.7 84 1.3 NNE 19 26 10 14 1023.6 1023.6 0.0
03/08:30am 10.4 6.3 8.0 85 1.2 NNE 19 24 10 13 1023.8 1023.8 0.0
03/08:00am 9.9 6.5 7.5 85 1.1 NNE 15 20 8 11 1024.3 1024.3 0.0
03/07:30am 7.7 4.4 6.2 90 0.7 N 13 15 7 8 1024.3 1024.3 0.0
03/07:00am 7.1 4.0 5.7 91 0.6 N 11 15 6 8 1024.3 1024.3 0.0
03/06:30am 6.9 4.2 5.4 90 0.7 N 9 11 5 6 1024.5 1024.5 0.0
03/06:00am 7.3 4.6 5.8 90 0.7 N 9 11 5 6 1024.7 1024.7 0.0
03/05:30am 7.3 4.5 5.1 86 1.0 N 9 11 5 6 1024.1 1024.1 0.0
03/05:00am 7.6 5.2 5.1 84 1.1 N 7 11 4 6 1024.1 1024.1 0.0
03/04:30am 8.4 6.1 4.8 78 1.6 N 6 7 3 4 1024.1 1024.1 0.0
03/04:00am 10.9 7.5 5.9 71 2.3 ENE 13 17 7 9 1023.7 1023.7 0.0
03/03:30am 11.1 7.5 5.2 67 2.7 E 13 20 7 11 1024.1 1024.1 0.0
03/03:00am 10.9 6.6 5.2 68 2.6 E 17 24 9 13 1024.0 1024.0 0.0
03/02:30am 10.5 6.6 5.5 71 2.3 ESE 15 20 8 11 1024.6 1024.6 0.0
03/02:00am 10.9 6.2 5.2 68 2.6 ESE 19 26 10 14 1025.2 1025.2 0.0
03/01:30am 10.6 6.3 5.4 70 2.4 E 17 19 9 10 1025.7 1025.7 0.0
03/01:00am 10.5 7.0 5.5 71 2.3 ESE 13 15 7 8 1026.4 1026.4 0.0
03/12:30am 10.7 7.7 6.1 73 2.1 ESE 11 15 6 8 1026.4 1026.4 0.0
03/12:00am 10.8 7.5 6.2 73 2.1 ESE 13 19 7 10 1026.3 1026.3 0.0
 
Date/Time
CST
Temp
°C
App
Temp
°C
Dew
Point
Rel
Hum
%
Delta-T
°C
Wind Press
QNH
hPa
Press
MSL
hPa
Rain
since 9 am
mm
Dir
 
Spd
km/h
Gust
km/h
Spd
kts
Gust
kts
02/11:30pm 10.8 7.5 6.2 73 2.1 SE 13 17 7 9 1026.6 1026.6 0.0
02/11:00pm 10.7 7.4 6.5 75 2.0 SE 13 19 7 10 1026.9 1026.9 0.0
02/10:30pm 11.0 7.8 6.9 76 1.9 SE 13 17 7 9 1027.2 1027.2 0.0
02/10:00pm 10.8 8.0 6.9 77 1.9 SSE 11 15 6 8 1027.4 1027.4 0.0
02/09:30pm 10.9 7.7 6.8 76 1.9 SE 13 20 7 11 1027.4 1027.4 0.0
02/09:00pm 11.4 8.2 6.9 74 2.1 SE 13 19 7 10 1027.6 1027.6 0.0
02/08:30pm 11.5 8.4 7.2 75 2.1 SSE 13 19 7 10 1027.4 1027.4 0.0
02/08:00pm 11.4 8.4 7.5 77 1.9 SE 13 19 7 10 1027.3 1027.3 0.0
02/07:30pm 11.7 7.2 7.0 73 2.2 SSE 20 26 11 14 1027.2 1027.2 0.0
02/07:00pm 11.7 7.8 7.0 73 2.3 SSE 17 22 9 12 1027.0 1027.0 0.0
02/06:30pm 11.6 7.5 7.7 77 1.9 SSE 19 26 10 14 1026.6 1026.6 0.0
02/06:00pm 11.8 7.6 7.5 75 2.1 SSE 19 24 10 13 1026.4 1026.4 0.0
02/05:30pm 11.9 7.6 7.8 76 2.0 SSE 20 26 11 14 1026.2 1026.2 0.0
02/05:00pm 12.1 6.9 7.4 73 2.3 SSE 24 30 13 16 1026.2 1026.2 0.0
02/04:30pm 12.7 11.0 8.4 75 2.1 S 7 11 4 6 1026.1 1026.1 0.0
02/04:00pm 13.0 11.0 8.5 74 2.2 S 9 11 5 6 1026.0 1026.0 0.0
02/03:30pm 13.1 11.0 8.4 73 2.3 SW 9 15 5 8 1026.0 1026.0 0.0
02/03:00pm 13.3 10.4 8.2 71 2.5 SSW 13 19 7 10 1025.9 1025.9 0.0
02/02:30pm 14.2 10.5 7.9 66 3.1 S 17 22 9 12 1025.8 1025.8 0.0
02/02:00pm 14.7 10.9 9.1 69 2.9 S 19 24 10 13 1025.9 1025.9 0.0
02/01:30pm 13.7 9.4 7.7 67 2.9 S 20 24 11 13 1026.2 1026.2 0.0
02/01:00pm 14.3 10.3 9.1 71 2.7 S 20 28 11 15 1026.3 1026.3 0.0
02/12:30pm 14.4 10.5 8.8 69 2.8 S 19 24 10 13 1026.5 1026.5 0.0
02/12:00pm 13.8 9.9 8.6 71 2.6 S 19 24 10 13 1026.4 1026.4 0.0
02/11:30am 13.6 9.1 8.4 71 2.6 S 22 32 12 17 1026.4 1026.4 0.0
02/11:00am 13.6 9.8 8.9 73 2.4 S 19 26 10 14 1026.5 1026.5 0.0
02/10:30am 13.4 8.8 8.0 70 2.7 S 22 28 12 15 1026.5 1026.5 0.0
02/10:00am 13.2 7.4 7.9 70 2.6 S 28 35 15 19 1026.5 1026.5 0.0
02/09:30am 12.2 6.7 7.5 73 2.3 S 26 33 14 18 1026.4 1026.4 0.0
02/09:00am 12.1 6.3 7.8 75 2.1 S 28 33 15 18 1026.2 1026.2 4.6
02/08:30am 12.0 5.7 7.3 73 2.3 S 30 39 16 21 1025.8 1025.8 4.6
02/08:00am 11.7 5.3 7.0 73 2.3 S 30 35 16 19 1025.4 1025.4 4.6
02/07:30am 11.4 4.3 6.5 72 2.3 S 33 43 18 23 1025.1 1025.1 4.6
02/07:00am 11.1 4.6 6.5 73 2.2 S 30 39 16 21 1024.9 1024.9 4.6
02/06:30am 11.2 4.8 6.9 75 2.0 S 30 43 16 23 1024.5 1024.5 4.6
02/06:00am 11.1 4.4 5.8 70 2.4 SSW 30 44 16 24 1024.1 1024.1 4.6
02/05:30am 11.3 4.8 6.6 73 2.2 SSW 30 43 16 23 1023.6 1023.6 4.6
02/05:00am 11.2 3.7 6.5 73 2.2 SSW 35 46 19 25 1023.1 1023.1 4.6
02/04:30am 11.2 3.6 7.5 78 1.8 S 37 48 20 26 1022.7 1022.7 4.6
02/04:00am 11.0 3.5 6.4 73 2.2 SSW 35 46 19 25 1022.4 1022.4 4.6
02/03:30am 10.9 2.8 6.8 76 1.9 S 39 50 21 27 1022.0 1022.0 4.6
02/03:00am 11.3 3.8 6.2 71 2.4 SSW 35 48 19 26 1021.8 1021.8 4.6
02/02:30am 11.0 3.5 6.4 73 2.2 SSW 35 52 19 28 1021.8 1021.8 4.6
02/02:00am 11.3 3.8 6.4 72 2.3 SSW 35 50 19 27 1021.6 1021.6 4.4
02/01:30am 11.0 3.6 6.7 75 2.0 S 35 46 19 25 1021.4 1021.4 4.4
02/01:15am 11.1 3.4 7.0 76 2.0 S 37 46 20 25 1021.2 1021.2 4.4
02/01:01am 11.1 4.2 6.3 72 2.3 SSW 32 56 17 30 1021.3 1021.3 4.4
02/01:00am 11.1 4.2 6.6 74 2.1 SSW 32 44 17 24 1021.3 1021.3 4.4
02/12:30am 10.8 5.7 7.7 81 1.5 SSW 24 43 13 23 1021.2 1021.2 4.4
02/12:00am 10.8 4.9 7.3 79 1.7 SW 28 48 15 26 1021.1 1021.1 4.2
 
Date/Time
CST
Temp
°C
App
Temp
°C
Dew
Point
Rel
Hum
%
Delta-T
°C
Wind Press
QNH
hPa
Press
MSL
hPa
Rain
since 9 am
mm
Dir
 
Spd
km/h
Gust
km/h
Spd
kts
Gust
kts
01/11:58pm 10.9 5.0 7.4 79 1.7 SW 28 48 15 26 1021.1 1021.1 4.2
01/11:30pm 9.9 4.7 7.3 84 1.2 SW 24 37 13 20 1021.1 1021.1 4.2
01/11:14pm 11.2 5.2 7.1 76 2.0 S 28 46 15 25 1020.9 1020.9 4.0
01/11:02pm 11.2 2.6 6.7 74 2.1 S 41 48 22 26 1020.8 1020.8 4.0
01/11:00pm 11.7 5.1 6.0 68 2.7 SW 30 48 16 26 1020.8 1020.8 4.0
01/10:58pm 11.5 5.1 5.2 65 2.9 SW 28 48 15 26 1020.7 1020.7 4.0
01/10:30pm 10.6 3.9 5.8 72 2.2 SW 30 39 16 21 1020.9 1020.9 4.0
01/10:01pm 11.6 4.4 6.1 69 2.6 SSW 33 54 18 29 1020.4 1020.4 4.0
01/10:00pm 11.5 4.3 5.8 68 2.7 SSW 33 48 18 26 1020.5 1020.5 4.0
01/09:30pm 11.0 4.0 6.0 71 2.3 SSW 32 48 17 26 1020.0 1020.0 4.0
01/09:04pm 10.3 3.2 5.3 71 2.3 SW 32 52 17 28 1019.6 1019.6 4.0
01/09:00pm 11.5 4.0 6.4 71 2.4 SW 35 52 19 28 1019.5 1019.5 4.0
01/08:30pm 11.5 3.2 4.0 60 3.3 SW 37 54 20 29 1019.1 1019.1 4.0
01/08:23pm 11.4 3.5 4.4 62 3.2 SW 35 54 19 29 1019.1 1019.1 4.0
01/08:00pm 11.3 3.3 5.6 68 2.6 SW 37 50 20 27 1018.8 1018.8 4.0
01/07:30pm 11.1 3.7 5.2 67 2.7 SW 33 52 18 28 1018.3 1018.3 4.0
01/07:01pm 10.8 4.0 6.9 77 1.9 SW 32 56 17 30 1017.9 1017.9 4.0
01/07:00pm 11.0 4.7 7.3 78 1.8 SW 30 44 16 24 1017.8 1017.8 4.0
01/06:30pm 9.5 4.5 7.9 90 0.8 SSW 24 33 13 18 1017.6 1017.6 3.8
01/06:00pm 9.7 4.6 7.6 87 1.0 WSW 24 35 13 19 1017.0 1017.0 2.2
01/05:30pm 8.9 1.9 6.7 86 1.0 WSW 33 46 18 25 1016.8 1016.8 2.0
01/05:11pm 9.3 0.0 7.4 88 0.9 SW 46 67 25 36 1016.5 1016.5 1.6
01/05:00pm 9.4 -0.6 7.7 89 0.8 SW 50 67 27 36 1016.3 1016.3 1.6
01/04:57pm 9.8 -1.4 7.7 87 1.0 SW 56 67 30 36 1016.2 1016.2 1.0
01/04:55pm 10.9 4.3 7.8 81 1.5 WSW 32 63 17 34 1016.1 1016.1 0.6
01/04:30pm 12.5 6.2 7.2 70 2.6 SW 30 43 16 23 1015.7 1015.7 0.2
01/04:00pm 12.4 5.6 7.5 72 2.4 SW 33 44 18 24 1015.4 1015.4 0.2
01/03:30pm 13.0 7.0 8.5 74 2.2 SW 30 41 16 22 1015.1 1015.1 0.2
01/03:00pm 11.2 5.4 9.5 89 0.9 SW 30 46 16 25 1014.8 1014.8 0.2
01/02:30pm 13.0 8.5 8.7 75 2.2 WSW 22 30 12 16 1014.5 1014.5 0.0
01/02:00pm 14.7 9.8 8.4 66 3.2 WSW 24 37 13 20 1014.6 1014.6 0.0
01/01:30pm 13.8 8.2 8.6 71 2.6 WSW 28 37 15 20 1014.5 1014.5 0.0
01/01:09pm 15.0 9.5 9.1 68 3.0 WSW 28 50 15 27 1014.5 1014.5 0.0
01/01:00pm 16.0 10.9 6.2 52 4.8 WSW 22 33 12 18 1014.6 1014.6 0.0
01/12:30pm 15.3 10.2 6.1 54 4.4 WSW 22 33 12 18 1014.7 1014.7 0.0
01/12:00pm 14.4 9.2 7.2 62 3.5 WSW 24 37 13 20 1014.8 1014.8 0.0
01/11:30am 15.1 10.3 7.2 59 3.9 WSW 22 32 12 17 1014.9 1014.9 0.0
01/11:00am 15.0 10.5 6.8 58 4.0 WSW 20 30 11 16 1014.8 1014.8 0.0
01/10:30am 14.5 9.2 6.6 59 3.8 WSW 24 33 13 18 1014.6 1014.6 0.0
01/10:00am 14.1 8.4 6.5 60 3.7 WSW 26 35 14 19 1014.6 1014.6 0.0
01/09:30am 13.9 8.6 7.0 63 3.4 WSW 24 35 13 19 1014.4 1014.4 0.0
01/09:00am 13.8 8.6 7.3 65 3.2 WSW 24 37 13 20 1014.2 1014.2 4.2
01/08:30am 13.3 8.1 7.1 66 3.0 SW 24 37 13 20 1014.0 1014.0 4.2
01/08:00am 12.5 7.7 7.4 71 2.5 SW 22 30 12 16 1013.7 1013.7 4.2
01/07:30am 12.5 7.1 7.8 73 2.3 SW 26 35 14 19 1013.3 1013.3 4.2
01/07:00am 12.3 7.8 8.6 78 1.8 SW 22 30 12 16 1013.0 1013.0 4.2
01/06:30am 12.3 7.4 8.4 77 1.9 SW 24 32 13 17 1012.8 1012.8 4.2
01/06:00am 12.0 7.5 8.5 79 1.7 SW 22 32 12 17 1012.4 1012.4 4.2
01/05:30am 12.1 7.6 8.6 79 1.7 WSW 22 33 12 18 1012.1 1012.1 4.2
01/05:00am 11.6 7.6 9.0 84 1.3 WSW 20 28 11 15 1011.9 1011.9 4.0
01/04:30am 12.6 8.0 9.8 83 1.4 SW 24 33 13 18 1011.6 1011.6 3.8
01/04:00am 12.7 8.4 9.5 81 1.6 SW 22 32 12 17 1011.4 1011.4 3.8
01/03:30am 12.6 8.3 9.4 81 1.6 SW 22 32 12 17 1011.1 1011.1 3.8
01/03:00am 12.2 9.2 10.8 91 0.7 WSW 17 22 9 12 1011.4 1011.4 3.8
01/02:30am 11.9 7.2 10.6 92 0.7 SW 26 33 14 18 1011.4 1011.4 3.8
01/02:01am 12.1 7.1 10.8 92 0.7 SW 28 46 15 25 1011.7 1011.7 3.4
01/02:00am 12.3 7.7 11.0 92 0.7 SW 26 46 14 25 1011.7 1011.7 3.0
01/01:30am 12.8 10.0 11.2 90 0.8 WSW 17 22 9 12 1011.7 1011.7 2.4
01/01:00am 13.1 9.9 11.3 89 1.0 WSW 19 26 10 14 1011.7 1011.7 2.2
01/12:30am 13.2 10.0 11.3 88 1.0 SW 19 26 10 14 1011.7 1011.7 2.0
01/12:00am 13.5 9.6 10.7 83 1.5 WSW 22 30 12 16 1011.8 1011.8 1.8
 
Date/Time
CST
Temp
°C
App
Temp
°C
Dew
Point
Rel
Hum
%
Delta-T
°C
Wind Press
QNH
hPa
Press
MSL
hPa
Rain
since 9 am
mm
Dir
 
Spd
km/h
Gust
km/h
Spd
kts
Gust
kts
31/11:30pm 13.4 9.1 10.6 83 1.5 WSW 24 32 13 17 1011.7 1011.7 1.8
31/11:00pm 13.3 9.0 10.8 85 1.3 WSW 24 32 13 17 1011.5 1011.5 1.8
31/10:30pm 13.4 10.1 11.5 88 1.0 WSW 20 30 11 16 1011.2 1011.2 1.8
31/10:00pm 13.0 10.1 11.1 88 1.0 WSW 17 22 9 12 1011.3 1011.3 1.8
31/09:30pm 12.9 10.9 11.5 91 0.7 SW 13 22 7 12 1010.9 1010.9 1.8
31/09:00pm 12.8 10.0 11.5 92 0.7 WSW 17 22 9 12 1011.1 1011.1 1.8
31/08:30pm 12.3 8.6 11.4 94 0.5 SW 22 32 12 17 1011.1 1011.1 1.8
31/08:00pm 13.2 10.2 12.6 96 0.3 WSW 20 30 11 16 1011.4 1011.4 1.6
31/07:30pm 13.5 11.1 12.7 95 0.4 W 17 26 9 14 1011.6 1011.6 1.0
31/07:00pm 13.8 11.1 13.0 95 0.4 WSW 19 28 10 15 1011.3 1011.3 0.8
31/06:30pm 14.2 11.9 13.1 93 0.6 WSW 17 24 9 13 1010.8 1010.8 0.0
31/06:00pm 14.9 12.1 13.3 90 0.9 WSW 20 26 11 14 1010.4 1010.4 0.0
31/05:30pm 15.6 12.5 12.2 80 1.9 W 20 32 11 17 1010.3 1010.3 0.0
31/05:00pm 15.8 12.5 9.7 67 3.2 W 17 26 9 14 1009.8 1009.8 0.0
31/04:30pm 16.3 12.6 8.0 58 4.2 WNW 17 24 9 13 1010.2 1010.2 0.0
31/04:00pm 16.4 12.2 7.6 56 4.4 NW 19 28 10 15 1009.6 1009.6 0.0
31/03:30pm 16.3 12.2 8.5 60 4.0 NNW 20 22 11 12 1009.2 1009.2 0.0
31/03:00pm 17.2 12.6 8.1 55 4.6 NNW 22 30 12 16 1010.0 1010.0 0.0
31/02:30pm 17.3 13.1 8.2 55 4.7 NW 20 32 11 17 1010.3 1010.3 0.0
31/02:00pm 17.6 11.9 6.8 49 5.4 NNW 26 33 14 18 1009.8 1009.8 0.0
31/01:30pm 18.5 13.1 6.4 45 6.0 N 24 39 13 21 1010.6 1010.6 0.0
31/01:00pm 17.4 11.5 6.0 47 5.6 N 26 35 14 19 1010.7 1010.7 0.0
31/12:30pm 17.1 10.2 6.6 50 5.2 N 32 43 17 23 1011.2 1011.2 0.0
31/12:00pm 16.6 11.1 5.9 49 5.2 N 24 33 13 18 1010.9 1010.9 0.0

Other Formats:

Comma delimited format used in spreadsheet applications
http://www.bom.gov.au/fwo/IDS60801/IDS60801.95806.axf

JavaScript Object Notation format (JSON) in row-major order
http://www.bom.gov.au/fwo/IDS60801/IDS60801.95806.json